Time;durP1;ratioP1;P1;durP2;ratioP2;P2;SDS_P1;SDS_P2;PMS_P1;PMS_P2;Temp;Humidity;BMP_temperature;BMP_pressure;BME280_temperature;BME280_humidity;BME280_pressure;Samples;Min_cycle;Max_cycle;Signal;HPM_P1;HPM_P2
2022/05/30 00:01:17;;;;;;;;;;;;;;;;;;5091890;27;19939;-69
2022/05/30 00:04:31;;;;;;;;;;;;;;;;;;5091424;27;19951;-69
2022/05/30 00:06:58;;;;;;;;;;;;;;;;;;5091564;28;20011;-69
2022/05/30 00:09:24;;;;;;;;;;;;;;;;;;5089853;28;19908;-69
2022/05/30 00:11:51;;;;;;;;;;;;;;;;;;5090698;28;19915;-69
2022/05/30 00:14:51;;;;;;;;;;;;;;;;;;5091444;28;19916;-70
2022/05/30 00:17:17;;;;;;;;;;;;;;;;;;5090063;28;19912;-70
2022/05/30 00:19:43;;;;;;;;;;;;;;;;;;5090720;28;19937;-70
2022/05/30 00:24:49;;;;;;;;;;;;;;;;;;5092092;28;19916;-69
2022/05/30 00:27:15;;;;;;;;;;;;;;;;;;5090891;28;19919;-69
2022/05/30 00:29:41;;;;;;;;;;;;;;;;;;5091263;28;19909;-70
2022/05/30 00:32:07;;;;;;;;;;;;;;;;;;5091035;28;19915;-69
2022/05/30 00:35:03;;;;;;;;;;;;;;;;;;5091737;28;20385;-68
2022/05/30 00:41:06;;;;;;;;;;;;;;;;;;5091056;27;19916;-69
2022/05/30 00:43:32;;;;;;;;;;;;;;;;;;5091423;28;19957;-69
2022/05/30 00:48:13;;;;;;;;;;;;;;;;;;5152588;27;19916;-70
2022/05/30 00:52:11;;;;;;;;;;;;;;;;;;5174027;27;20006;-69
2022/05/30 00:54:37;;;;;;;;;;;;;;;;;;5173119;27;19911;-69
2022/05/30 00:57:20;;;;;;;;;;;;;;;;;;5173618;27;19914;-68
2022/05/30 00:59:45;;;;;;;;;;;;;;;;;;5173565;27;20450;-69
2022/05/30 01:07:53;;;;;;;;;;;;;;;;;;5091313;28;19920;-69
2022/05/30 01:10:19;;;;;;;;;;;;;;;;;;5091321;28;19912;-69
2022/05/30 01:13:35;;;;;;;;;;;;;;;;;;5091813;27;19916;-69
2022/05/30 01:16:02;;;;;;;;;;;;;;;;;;5090894;28;20348;-69
2022/05/30 01:18:28;;;;;;;;;;;;;;;;;;5091229;28;20003;-69
2022/05/30 01:22:38;;;;;;;;;;;;;;;;;;5091338;27;19912;-69
2022/05/30 01:25:04;;;;;;;;;;;;;;;;;;5091552;28;20003;-69
2022/05/30 01:30:02;;;;;;;;;;;;;;;;;;5091157;28;20300;-69
2022/05/30 01:32:28;;;;;;;;;;;;;;;;;;5091559;28;20003;-69
2022/05/30 01:34:54;;;;;;;;;;;;;;;;;;5091148;28;19931;-68
2022/05/30 01:37:20;;;;;;;;;;;;;;;;;;5090759;28;19955;-69
2022/05/30 01:39:46;;;;;;;;;;;;;;;;;;5091045;28;19991;-69
2022/05/30 01:44:33;;;;;;;;;;;;;;;;;;5090986;27;19919;-70
2022/05/30 01:46:59;;;;;;;;;;;;;;;;;;5091269;28;20351;-70
2022/05/30 01:51:58;;;;;;;;;;;;;;;;;;5090982;27;19923;-69
2022/05/30 01:54:24;;;;;;;;;;;;;;;;;;5091244;28;19912;-69
2022/05/30 01:56:51;;;;;;;;;;;;;;;;;;5091050;28;20356;-69
2022/05/30 01:59:17;;;;;;;;;;;;;;;;;;5091167;28;19934;-69
2022/05/30 02:01:44;;;;;;;;;;;;;;;;;;5091154;28;20369;-69
2022/05/30 02:04:10;;;;;;;;;;;;;;;;;;5091201;28;20317;-69
2022/05/30 02:06:36;;;;;;;;;;;;;;;;;;5091097;28;19974;-69
2022/05/30 02:09:02;;;;;;;;;;;;;;;;;;5090943;28;19910;-69
2022/05/30 02:11:28;;;;;;;;;;;;;;;;;;5090523;28;19935;-69
2022/05/30 02:13:54;;;;;;;;;;;;;;;;;;5089930;28;19917;-69
2022/05/30 02:18:53;;;;;;;;;;;;;;;;;;5091381;27;19916;-69
2022/05/30 02:21:35;;;;;;;;;;;;;;;;;;5091406;27;20277;-69
2022/05/30 02:24:01;;;;;;;;;;;;;;;;;;5091475;28;20003;-69
2022/05/30 02:26:27;;;;;;;;;;;;;;;;;;5091027;28;19995;-69
2022/05/30 02:28:53;;;;;;;;;;;;;;;;;;5091429;28;19917;-69
2022/05/30 02:37:52;;;;;;;;;;;;;;;;;;5091565;28;19958;-70
2022/05/30 02:40:18;;;;;;;;;;;;;;;;;;5090840;28;20322;-70
2022/05/30 02:44:57;;;;;;;;;;;;;;;;;;5091574;28;20288;-69
2022/05/30 02:47:23;;;;;;;;;;;;;;;;;;5090880;28;19999;-69
2022/05/30 02:49:49;;;;;;;;;;;;;;;;;;5091295;28;19916;-69
2022/05/30 02:53:23;;;;;;;;;;;;;;;;;;5091440;27;19920;-69
2022/05/30 02:55:49;;;;;;;;;;;;;;;;;;5091538;28;20011;-69
2022/05/30 03:00:26;;;;;;;;;;;;;;;;;;5091190;28;19916;-69
2022/05/30 03:02:52;;;;;;;;;;;;;;;;;;5091308;28;19919;-70
2022/05/30 03:05:18;;;;;;;;;;;;;;;;;;5091191;28;19991;-69
2022/05/30 03:12:18;;;;;;;;;;;;;;;;;;5091571;28;19916;-69
2022/05/30 03:14:44;;;;;;;;;;;;;;;;;;5090833;28;19934;-69
2022/05/30 03:17:10;;;;;;;;;;;;;;;;;;5091386;28;20403;-69
2022/05/30 03:19:36;;;;;;;;;;;;;;;;;;5091210;28;19915;-69
2022/05/30 03:23:53;;;;;;;;;;;;;;;;;;5091513;27;19923;-69
2022/05/30 03:26:19;;;;;;;;;;;;;;;;;;5091297;28;19913;-69
2022/05/30 03:28:45;;;;;;;;;;;;;;;;;;5090818;28;19908;-69
2022/05/30 03:35:40;;;;;;;;;;;;;;;;;;5091393;28;19917;-69
2022/05/30 03:38:06;;;;;;;;;;;;;;;;;;5091312;28;19918;-69
2022/05/30 03:40:32;;;;;;;;;;;;;;;;;;5091230;28;19946;-69
2022/05/30 03:42:58;;;;;;;;;;;;;;;;;;5090790;28;19951;-69
2022/05/30 03:45:24;;;;;;;;;;;;;;;;;;5091067;28;19912;-69
2022/05/30 03:50:18;;;;;;;;;;;;;;;;;;5091343;27;19917;-69
2022/05/30 04:02:09;;;;;;;;;;;;;;;;;;5091997;27;19912;-69
2022/05/30 04:04:35;;;;;;;;;;;;;;;;;;5090914;28;20053;-69
2022/05/30 04:08:33;;;;;;;;;;;;;;;;;;5091883;27;19916;-69
2022/05/30 04:13:18;;;;;;;;;;;;;;;;;;5092055;27;19912;-69
2022/05/30 04:15:44;;;;;;;;;;;;;;;;;;5091335;28;20010;-69
2022/05/30 04:18:10;;;;;;;;;;;;;;;;;;5090919;28;19912;-69
2022/05/30 04:22:30;;;;;;;;;;;;;;;;;;5091563;27;20375;-70
2022/05/30 04:24:56;;;;;;;;;;;;;;;;;;5090828;28;19916;-70
2022/05/30 04:27:37;;;;;;;;;;;;;;;;;;5173983;27;19915;-70
2022/05/30 04:32:30;;;;;;;;;;;;;;;;;;5152752;27;20462;-69
2022/05/30 04:35:37;;;;;;;;;;;;;;;;;;5091917;27;19916;-66
2022/05/30 04:38:31;;;;;;;;;;;;;;;;;;5091754;27;20377;-66
2022/05/30 04:45:17;;;;;;;;;;;;;;;;;;5091606;27;19916;-67
2022/05/30 04:56:41;;;;;;;;;;;;;;;;;;5091671;27;20291;-68
2022/05/30 04:59:07;;;;;;;;;;;;;;;;;;5090903;28;20012;-68
2022/05/30 05:01:33;;;;;;;;;;;;;;;;;;5089588;28;19915;-70
2022/05/30 05:03:59;;;;;;;;;;;;;;;;;;5089898;28;19909;-68
2022/05/30 05:06:25;;;;;;;;;;;;;;;;;;5091244;28;19908;-68
2022/05/30 05:08:51;;;;;;;;;;;;;;;;;;5090838;28;20387;-68
2022/05/30 05:11:17;;;;;;;;;;;;;;;;;;5089610;28;20380;-68
2022/05/30 05:13:43;;;;;;;;;;;;;;;;;;5088228;28;19908;-68
2022/05/30 05:17:48;;;;;;;;;;;;;;;;;;5090238;28;19924;-73
2022/05/30 05:20:14;;;;;;;;;;;;;;;;;;5084695;28;19956;-73
2022/05/30 05:24:48;;;;;;;;;;;;;;;;;;5080246;27;19916;-74
2022/05/30 05:27:26;;;;;;;;;;;;;;;;;;5067343;27;19917;-73
2022/05/30 05:31:17;;;;;;;;;;;;;;;;;;5081600;27;20295;-72
2022/05/30 05:36:53;;;;;;;;;;;;;;;;;;5083896;28;20307;-71
2022/05/30 05:41:28;;;;;;;;;;;;;;;;;;5123416;27;19916;-71
2022/05/30 05:49:09;;;;;;;;;;;;;;;;;;5086022;27;19916;-71
2022/05/30 05:51:46;;;;;;;;;;;;;;;;;;5109056;27;20394;-74
2022/05/30 05:54:12;;;;;;;;;;;;;;;;;;5110168;28;19912;-71
2022/05/30 05:56:38;;;;;;;;;;;;;;;;;;5109169;28;19911;-71
2022/05/30 05:59:04;;;;;;;;;;;;;;;;;;5109612;28;19919;-72
2022/05/30 06:01:31;;;;;;;;;;;;;;;;;;5109939;28;19963;-73
2022/05/30 06:05:22;;;;;;;;;;;;;;;;;;5088673;27;19939;-72
2022/05/30 06:14:52;;;;;;;;;;;;;;;;;;5087558;27;19921;-73
2022/05/30 06:17:33;;;;;;;;;;;;;;;;;;5145685;27;19992;-73
2022/05/30 06:20:26;;;;;;;;;;;;;;;;;;5071850;28;19928;-74
2022/05/30 06:22:52;;;;;;;;;;;;;;;;;;5070124;28;19923;-73
2022/05/30 06:25:18;;;;;;;;;;;;;;;;;;5074999;28;19917;-73
2022/05/30 06:27:44;;;;;;;;;;;;;;;;;;5077337;28;19908;-73
2022/05/30 06:30:10;;;;;;;;;;;;;;;;;;5087784;28;19918;-71
2022/05/30 06:38:46;;;;;;;;;;;;;;;;;;5089884;27;19920;-71
2022/05/30 06:42:07;;;;;;;;;;;;;;;;;;5090041;28;19924;-72
2022/05/30 06:44:35;;;;;;;;;;;;;;;;;;5093503;28;19919;-74
2022/05/30 06:47:28;;;;;;;;;;;;;;;;;;5089923;27;20299;-72
2022/05/30 06:49:54;;;;;;;;;;;;;;;;;;5090647;28;19913;-72
2022/05/30 06:53:30;;;;;;;;;;;;;;;;;;5082563;27;19920;-72
2022/05/30 06:55:56;;;;;;;;;;;;;;;;;;5068224;28;19919;-75
2022/05/30 06:58:22;;;;;;;;;;;;;;;;;;5064902;28;19928;-72
2022/05/30 07:03:59;;;;;;;;;;;;;;;;;;5076416;28;19925;-72
2022/05/30 07:06:25;;;;;;;;;;;;;;;;;;5075112;28;19952;-73
2022/05/30 07:09:56;;;;;;;;;;;;;;;;;;5110893;27;19935;-73
2022/05/30 07:12:22;;;;;;;;;;;;;;;;;;5111007;28;20291;-73
2022/05/30 07:14:48;;;;;;;;;;;;;;;;;;5115552;28;19912;-73
2022/05/30 07:17:14;;;;;;;;;;;;;;;;;;5108581;28;19912;-72
2022/05/30 07:21:08;;;;;;;;;;;;;;;;;;5086934;27;19935;-74
2022/05/30 07:23:34;;;;;;;;;;;;;;;;;;5085650;28;19912;-77
2022/05/30 07:25:59;;;;;;;;;;;;;;;;;;5088277;28;19920;-77
2022/05/30 07:28:28;;;;;;;;;;;;;;;;;;5090146;28;19965;-74
2022/05/30 07:30:54;;;;;;;;;;;;;;;;;;5089470;28;19921;-76
2022/05/30 07:33:20;;;;;;;;;;;;;;;;;;5089335;28;20288;-75
2022/05/30 07:38:09;;;;;;;;;;;;;;;;;;5086746;27;19922;-72
2022/05/30 07:43:53;;;;;;;;;;;;;;;;;;5086969;27;19920;-73
2022/05/30 07:46:19;;;;;;;;;;;;;;;;;;5079875;28;19927;-73
2022/05/30 07:48:45;;;;;;;;;;;;;;;;;;5080226;28;20376;-74
2022/05/30 07:51:11;;;;;;;;;;;;;;;;;;5069542;28;19994;-74
2022/05/30 07:53:50;;;;;;;;;;;;;;;;;;5087424;27;19917;-73
2022/05/30 07:56:16;;;;;;;;;;;;;;;;;;5064225;28;19940;-72
2022/05/30 07:58:42;;;;;;;;;;;;;;;;;;5068696;28;19913;-73
2022/05/30 08:01:08;;;;;;;;;;;;;;;;;;5064345;28;19921;-73
2022/05/30 08:05:20;;;;;;;;;;;;;;;;;;5092230;27;19921;-72
2022/05/30 08:07:46;;;;;;;;;;;;;;;;;;5090679;28;19916;-74
2022/05/30 08:10:39;;;;;;;;;;;;;;;;;;5109533;27;19920;-73
2022/05/30 08:13:05;;;;;;;;;;;;;;;;;;5108898;28;19919;-72
2022/05/30 08:18:05;;;;;;;;;;;;;;;;;;5069273;28;19923;-73
2022/05/30 08:20:31;;;;;;;;;;;;;;;;;;5069110;28;19997;-73
2022/05/30 08:22:57;;;;;;;;;;;;;;;;;;5066219;28;19962;-73
2022/05/30 08:25:23;;;;;;;;;;;;;;;;;;5067648;28;19926;-73
2022/05/30 08:27:49;;;;;;;;;;;;;;;;;;5067565;28;19920;-74
2022/05/30 08:30:48;;;;;;;;;;;;;;;;;;5088442;27;20250;-73
2022/05/30 08:33:14;;;;;;;;;;;;;;;;;;5084288;28;19930;-71
2022/05/30 08:36:30;;;;;;;;;;;;;;;;;;5085851;27;20505;-72
2022/05/30 08:43:15;;;;;;;;;;;;;;;;;;5087319;27;19920;-72
2022/05/30 08:46:12;;;;;;;;;;;;;;;;;;5128939;27;19916;-73
2022/05/30 08:48:41;;;;;;;;;;;;;;;;;;5105310;28;20003;-74
2022/05/30 08:51:09;;;;;;;;;;;;;;;;;;5099993;28;20374;-73
2022/05/30 08:53:35;;;;;;;;;;;;;;;;;;5107089;28;19912;-72
2022/05/30 08:57:20;;;;;;;;;;;;;;;;;;5084488;28;19921;-71
2022/05/30 08:59:46;;;;;;;;;;;;;;;;;;5096329;28;19912;-70
2022/05/30 09:02:12;;;;;;;;;;;;;;;;;;5090226;28;19919;-73
2022/05/30 09:04:38;;;;;;;;;;;;;;;;;;5083562;28;19920;-71
2022/05/30 09:07:04;;;;;;;;;;;;;;;;;;5085209;28;20010;-71
2022/05/30 09:09:30;;;;;;;;;;;;;;;;;;5084899;28;20844;-70
2022/05/30 09:11:56;;;;;;;;;;;;;;;;;;5083302;28;19916;-70
2022/05/30 09:15:51;;;;;;;;;;;;;;;;;;5071480;27;19926;-70
2022/05/30 09:20:23;;;;;;;;;;;;;;;;;;5130947;27;19926;-71
2022/05/30 09:22:49;;;;;;;;;;;;;;;;;;5119019;28;19916;-73
2022/05/30 09:28:35;;;;;;;;;;;;;;;;;;5147364;27;20367;-71
2022/05/30 09:31:01;;;;;;;;;;;;;;;;;;5139937;27;19998;-69
2022/05/30 09:33:54;;;;;;;;;;;;;;;;;;5065881;27;20304;-69
2022/05/30 09:36:20;;;;;;;;;;;;;;;;;;5066076;28;19913;-71
2022/05/30 09:38:47;;;;;;;;;;;;;;;;;;5063929;28;19908;-70
2022/05/30 09:41:14;;;;;;;;;;;;;;;;;;5064513;28;20402;-71
2022/05/30 09:43:41;;;;;;;;;;;;;;;;;;5064342;28;19909;-71
2022/05/30 09:46:07;;;;;;;;;;;;;;;;;;5064339;28;20386;-72
2022/05/30 09:50:54;;;;;;;;;;;;;;;;;;5088982;27;19920;-71
2022/05/30 09:53:20;;;;;;;;;;;;;;;;;;5067227;28;19917;-71
2022/05/30 09:55:46;;;;;;;;;;;;;;;;;;5068573;28;19943;-71
2022/05/30 09:59:19;;;;;;;;;;;;;;;;;;5089385;27;19935;-69
2022/05/30 10:06:38;;;;;;;;;;;;;;;;;;5080125;28;19942;-70
2022/05/30 10:12:10;;;;;;;;;;;;;;;;;;5095230;27;19926;-70
2022/05/30 10:17:32;;;;;;;;;;;;;;;;;;5137833;27;19915;-69
2022/05/30 10:19:58;;;;;;;;;;;;;;;;;;5127608;28;20002;-68
2022/05/30 10:30:25;;;;;;;;;;;;;;;;;;5070893;28;19933;-68
2022/05/30 10:32:51;;;;;;;;;;;;;;;;;;5088014;28;19999;-70
2022/05/30 10:37:18;;;;;;;;;;;;;;;;;;5089465;27;20411;-69
2022/05/30 10:42:06;;;;;;;;;;;;;;;;;;5128724;27;19922;-67
2022/05/30 10:44:33;;;;;;;;;;;;;;;;;;5130110;27;19951;-67
2022/05/30 10:46:59;;;;;;;;;;;;;;;;;;5127767;28;20415;-69
2022/05/30 10:49:25;;;;;;;;;;;;;;;;;;5124106;27;20411;-68
2022/05/30 10:51:52;;;;;;;;;;;;;;;;;;5123487;27;19969;-68
2022/05/30 10:54:18;;;;;;;;;;;;;;;;;;5127214;27;19908;-68
2022/05/30 10:56:44;;;;;;;;;;;;;;;;;;5128151;28;19915;-69
2022/05/30 10:59:10;;;;;;;;;;;;;;;;;;5128026;28;19908;-69
2022/05/30 11:04:01;;;;;;;;;;;;;;;;;;5090130;27;19926;-69
2022/05/30 11:06:27;;;;;;;;;;;;;;;;;;5086959;28;19912;-69
2022/05/30 11:08:58;;;;;;;;;;;;;;;;;;5087731;28;19909;-69
2022/05/30 11:11:24;;;;;;;;;;;;;;;;;;5088679;28;19979;-67
2022/05/30 11:13:50;;;;;;;;;;;;;;;;;;5100745;28;19919;-68
2022/05/30 11:16:16;;;;;;;;;;;;;;;;;;5108954;28;20263;-68
2022/05/30 11:18:42;;;;;;;;;;;;;;;;;;5106956;28;20006;-69
2022/05/30 11:21:08;;;;;;;;;;;;;;;;;;5105007;28;19946;-70
2022/05/30 11:23:34;;;;;;;;;;;;;;;;;;5089934;28;19971;-71
2022/05/30 11:26:01;;;;;;;;;;;;;;;;;;5101347;28;19912;-70
2022/05/30 11:28:27;;;;;;;;;;;;;;;;;;5089614;28;20245;-69
2022/05/30 11:30:53;;;;;;;;;;;;;;;;;;5089901;28;19930;-68
2022/05/30 11:33:19;;;;;;;;;;;;;;;;;;5096866;28;19943;-69
2022/05/30 11:35:45;;;;;;;;;;;;;;;;;;5085714;28;19954;-67
2022/05/30 11:38:11;;;;;;;;;;;;;;;;;;5086339;28;19912;-68
2022/05/30 11:40:37;;;;;;;;;;;;;;;;;;5085513;28;19916;-68
2022/05/30 11:43:04;;;;;;;;;;;;;;;;;;5086176;28;19916;-70
2022/05/30 11:45:30;;;;;;;;;;;;;;;;;;5098352;28;20313;-69
2022/05/30 11:47:56;;;;;;;;;;;;;;;;;;5085952;28;19987;-69
2022/05/30 11:50:21;;;;;;;;;;;;;;;;;;5088571;28;19955;-69
2022/05/30 11:52:47;;;;;;;;;;;;;;;;;;5089102;28;19909;-69
2022/05/30 11:55:14;;;;;;;;;;;;;;;;;;5090889;28;19916;-69
2022/05/30 11:57:40;;;;;;;;;;;;;;;;;;5098400;28;20403;-69
2022/05/30 12:00:07;;;;;;;;;;;;;;;;;;5089232;28;19908;-70
2022/05/30 12:02:33;;;;;;;;;;;;;;;;;;5088716;28;19999;-73
2022/05/30 12:04:59;;;;;;;;;;;;;;;;;;5086726;28;19999;-70
2022/05/30 12:07:24;;;;;;;;;;;;;;;;;;5087806;28;19916;-69
2022/05/30 12:09:52;;;;;;;;;;;;;;;;;;5085199;28;19909;-70
2022/05/30 12:12:18;;;;;;;;;;;;;;;;;;5085752;28;20281;-70
2022/05/30 12:14:44;;;;;;;;;;;;;;;;;;5075611;28;19913;-70
2022/05/30 12:17:10;;;;;;;;;;;;;;;;;;5081944;28;20364;-71
2022/05/30 12:25:05;;;;;;;;;;;;;;;;;;5075071;28;19915;-70
2022/05/30 12:27:34;;;;;;;;;;;;;;;;;;5075367;28;19913;-71
2022/05/30 12:30:00;;;;;;;;;;;;;;;;;;5074715;28;19995;-69
2022/05/30 12:32:32;;;;;;;;;;;;;;;;;;5079701;28;19960;-68
2022/05/30 12:35:00;;;;;;;;;;;;;;;;;;5095736;28;20364;-68
2022/05/30 12:37:26;;;;;;;;;;;;;;;;;;5095050;28;19912;-69
2022/05/30 12:39:52;;;;;;;;;;;;;;;;;;5095366;28;19937;-69
2022/05/30 12:42:18;;;;;;;;;;;;;;;;;;5094256;28;19912;-69
2022/05/30 12:44:44;;;;;;;;;;;;;;;;;;5093343;28;20013;-70
2022/05/30 12:47:10;;;;;;;;;;;;;;;;;;5092359;28;19908;-70
2022/05/30 12:49:36;;;;;;;;;;;;;;;;;;5091668;28;20026;-70
2022/05/30 12:52:02;;;;;;;;;;;;;;;;;;5091403;28;19908;-70
2022/05/30 12:54:29;;;;;;;;;;;;;;;;;;5091754;28;19946;-69
2022/05/30 12:56:55;;;;;;;;;;;;;;;;;;5091607;28;19915;-70
2022/05/30 12:59:21;;;;;;;;;;;;;;;;;;5091955;28;19919;-69
2022/05/30 13:01:48;;;;;;;;;;;;;;;;;;5093734;28;19908;-68
2022/05/30 13:04:14;;;;;;;;;;;;;;;;;;5095672;28;19908;-69
2022/05/30 13:06:40;;;;;;;;;;;;;;;;;;5093520;28;19915;-69
2022/05/30 13:09:06;;;;;;;;;;;;;;;;;;5093314;28;19908;-68
2022/05/30 13:11:32;;;;;;;;;;;;;;;;;;5093263;28;19908;-68
2022/05/30 13:13:58;;;;;;;;;;;;;;;;;;5093121;28;19908;-68
2022/05/30 13:16:24;;;;;;;;;;;;;;;;;;5093384;28;19953;-68
2022/05/30 13:18:49;;;;;;;;;;;;;;;;;;5093369;28;19991;-68
2022/05/30 13:21:16;;;;;;;;;;;;;;;;;;5092848;28;19948;-68
2022/05/30 13:23:42;;;;;;;;;;;;;;;;;;5095048;28;20348;-69
2022/05/30 13:26:08;;;;;;;;;;;;;;;;;;5094133;28;20311;-68
2022/05/30 13:28:34;;;;;;;;;;;;;;;;;;5095257;28;20285;-68
2022/05/30 13:30:59;;;;;;;;;;;;;;;;;;5095198;28;20017;-68
2022/05/30 13:33:25;;;;;;;;;;;;;;;;;;5094698;28;19912;-68
2022/05/30 13:35:52;;;;;;;;;;;;;;;;;;5095047;28;19918;-68
2022/05/30 13:38:18;;;;;;;;;;;;;;;;;;5095036;28;19908;-68
2022/05/30 13:40:44;;;;;;;;;;;;;;;;;;5094778;28;19915;-68
2022/05/30 13:43:10;;;;;;;;;;;;;;;;;;5094919;28;19917;-68
2022/05/30 13:45:36;;;;;;;;;;;;;;;;;;5094815;28;19915;-68
2022/05/30 13:48:04;;;;;;;3.65;1.42;;;;;;;;;;5093809;28;20802;-68
2022/05/30 13:50:50;;;;;;;3.15;1.23;;;;;;;;;;5094345;28;20036;-68
2022/05/30 13:53:19;;;;;;;3.83;1.05;;;;;;;;;;5094362;28;20476;-68
2022/05/30 13:55:50;;;;;;;3.92;1.10;;;;;;;;;;5093918;28;20024;-68
2022/05/30 13:58:17;;;;;;;2.38;0.75;;;;;;;;;;5094235;28;20028;-68
2022/05/30 14:00:43;;;;;;;4.45;1.38;;;;;;;;;;5094757;28;20368;-68
2022/05/30 14:03:10;;;;;;;2.90;0.90;;;;;;;;;;5076465;28;20080;-69
2022/05/30 14:05:41;;;;;;;6.10;1.13;;;;;;;;;;5073814;28;20456;-67
2022/05/30 14:08:12;;;;;;;3.55;1.98;;;;;;;;;;5073713;28;20099;-69
2022/05/30 14:10:42;;;;;;;5.47;1.73;;;;;;;;;;5073368;28;20074;-67
2022/05/30 14:13:30;;;;;;;7.45;1.15;;;;;;;;;;5073926;28;20024;-68
2022/05/30 14:15:57;;;;;;;4.85;1.30;;;;;;;;;;5073267;28;20358;-67
2022/05/30 14:18:30;;;;;;;2.97;1.02;;;;;;;;;;5073973;28;20016;-68
2022/05/30 14:20:57;;;;;;;3.78;1.40;;;;;;;;;;5073950;28;20027;-68
2022/05/30 14:23:24;;;;;;;3.35;1.13;;;;;;;;;;5073080;28;20040;-68
2022/05/30 14:25:52;;;;;;;5.38;1.65;;;;;;;;;;5073550;28;20035;-68
2022/05/30 14:28:27;;;;;;;3.10;1.15;;;;;;;;;;5072296;28;20036;-68
2022/05/30 14:30:54;;;;;;;3.63;1.20;;;;;;;;;;5073192;28;20020;-68
2022/05/30 14:33:20;;;;;;;6.03;1.50;;;;;;;;;;5073723;28;20016;-68
2022/05/30 14:35:46;;;;;;;3.58;1.98;;;;;;;;;;5073490;28;20036;-68
2022/05/30 14:38:24;;;;;;;5.40;1.60;;;;;;;;;;5072792;28;20013;-68
2022/05/30 14:40:50;;;;;;;6.07;1.50;;;;;;;;;;5073469;28;20377;-69
2022/05/30 14:43:28;;;;;;;5.75;1.25;;;;;;;;;;5073171;28;20032;-68
2022/05/30 14:46:05;;;;;;;4.38;1.38;;;;;;;;;;5073531;28;20025;-68
2022/05/30 14:48:31;;;;;;;3.03;1.25;;;;;;;;;;5073506;28;20033;-69
2022/05/30 14:51:02;;;;;;;4.20;1.23;;;;;;;;;;5072840;28;20025;-68
2022/05/30 14:53:30;;;;;;;3.50;1.30;;;;;;;;;;5073373;28;20031;-68
2022/05/30 14:55:59;;;;;;;4.05;1.40;;;;;;;;;;5073363;28;20473;-68
2022/05/30 14:58:28;;;;;;;2.70;1.25;;;;;;;;;;5072614;28;20508;-68
2022/05/30 15:00:56;;;;;;;5.25;1.48;;;;;;;;;;5073177;28;20032;-68
2022/05/30 15:06:09;;;;;;;3.40;1.30;;;;;;;;;;5073072;28;20051;-68
2022/05/30 15:08:36;;;;;;;5.55;1.98;;;;;;;;;;5073045;28;20043;-69
2022/05/30 15:11:24;;;;;;;2.40;1.35;;;;;;;;;;5073429;28;20038;-69
2022/05/30 15:13:55;;;;;;;4.00;1.33;;;;;;;;;;5072368;28;20064;-68
2022/05/30 15:16:22;;;;;;;5.47;1.65;;;;;;;;;;5073272;28;20051;-68
2022/05/30 15:18:48;;;;;;;4.35;1.63;;;;;;;;;;5071296;28;20025;-69
2022/05/30 15:21:20;;;;;;;4.53;1.67;;;;;;;;;;5072927;28;20087;-68
2022/05/30 15:23:46;;;;;;;;;;;;;;;;;;5073282;28;20434;-69
2022/05/30 15:26:12;;;;;;;5.25;1.60;;;;;;;;;;5072633;28;20005;-68
2022/05/30 15:28:40;;;;;;;4.32;1.40;;;;;;;;;;5073049;28;20047;-68
2022/05/30 15:31:06;;;;;;;3.75;1.13;;;;;;;;;;5071585;28;20485;-68
2022/05/30 15:33:36;;;;;;;2.15;1.08;;;;;;;;;;5072351;28;20065;-68
2022/05/30 15:36:02;;;;;;;7.93;2.13;;;;;;;;;;5072893;28;20121;-68
2022/05/30 15:38:28;;;;;;;6.63;1.42;;;;;;;;;;5072970;28;20017;-68
2022/05/30 15:40:54;;;;;;;3.30;1.48;;;;;;;;;;5072425;28;20025;-68
2022/05/30 15:43:21;;;;;;;4.10;1.60;;;;;;;;;;5072640;28;20511;-68
2022/05/30 15:45:47;;;;;;;2.33;1.23;;;;;;;;;;5072935;28;20385;-68
2022/05/30 15:48:14;;;;;;;9.15;1.83;;;;;;;;;;5072320;28;20427;-68
2022/05/30 15:50:42;;;;;;;6.55;1.67;;;;;;;;;;5076112;28;20016;-68
2022/05/30 15:58:40;;;;;;;3.25;1.30;;;;;;;;;;5076324;28;20031;-68
2022/05/30 16:01:06;;;;;;;4.32;1.30;;;;;;;;;;5075844;28;20078;-68
2022/05/30 16:03:33;;;;;;;2.08;1.25;;;;;;;;;;5076010;28;20052;-68
2022/05/30 16:05:59;;;;;;;2.97;1.25;;;;;;;;;;5075248;28;20098;-69
2022/05/30 16:08:39;;;;;;;3.42;1.48;;;;;;;;;;5075784;28;20047;-69
2022/05/30 16:11:06;;;;;;;3.70;1.20;;;;;;;;;;5076316;28;20013;-68
2022/05/30 16:13:32;;;;;;;9.20;2.00;;;;;;;;;;5075850;28;20032;-68
2022/05/30 16:15:58;;;;;;;3.92;1.40;;;;;;;;;;5074129;28;20044;-68
2022/05/30 16:18:24;;;;;;;3.45;1.30;;;;;;;;;;5076095;28;20024;-68
2022/05/30 16:20:54;;;;;;;4.00;1.50;;;;;;;;;;5075955;28;20426;-68
2022/05/30 16:23:23;;;;;;;2.42;1.20;;;;;;;;;;5075273;28;20032;-68
2022/05/30 16:25:51;;;;;;;3.85;1.35;;;;;;;;;;5075844;28;20542;-69
2022/05/30 16:28:18;;;;;;;4.05;1.35;;;;;;;;;;5075808;28;20461;-69
2022/05/30 16:30:44;;;;;;;3.97;2.22;;;;;;;;;;5075423;28;20493;-68
2022/05/30 16:33:10;;;;;;;3.95;1.20;;;;;;;;;;5075735;28;20029;-69
2022/05/30 16:35:36;;;;;;;3.38;1.05;;;;;;;;;;5074231;28;20020;-68
2022/05/30 16:38:02;;;;;;;4.43;1.33;;;;;;;;;;5075218;28;20458;-68
2022/05/30 16:40:30;;;;;;;3.08;1.35;;;;;;;;;;5075631;28;20055;-68
2022/05/30 16:42:56;;;;;;;3.53;1.33;;;;;;;;;;5075542;28;20473;-68
2022/05/30 16:45:23;;;;;;;5.75;1.30;;;;;;;;;;5075130;28;20385;-69
2022/05/30 16:47:50;;;;;;;3.83;1.50;;;;;;;;;;5075420;28;20448;-69
2022/05/30 16:50:19;;;;;;;6.20;1.88;;;;;;;;;;5075037;28;20536;-69
2022/05/30 16:53:35;;;;;;;5.68;1.50;;;;;;;;;;5111493;27;20570;-69
2022/05/30 16:56:01;;;;;;;7.15;1.65;;;;;;;;;;5111157;28;20024;-69
2022/05/30 16:58:28;;;;;;;5.82;1.35;;;;;;;;;;5110713;28;20430;-68
2022/05/30 17:00:54;;;;;;;5.10;1.60;;;;;;;;;;5111059;28;20037;-68
2022/05/30 17:03:21;;;;;;;2.63;1.00;;;;;;;;;;5110938;28;20110;-69
2022/05/30 17:05:48;;;;;;;4.75;1.30;;;;;;;;;;5110586;28;20031;-69
2022/05/30 17:08:16;;;;;;;7.82;1.30;;;;;;;;;;5110922;28;20023;-69
2022/05/30 17:11:09;;;;;;;4.65;1.58;;;;;;;;;;5132134;27;20122;-68
2022/05/30 17:13:38;;;;;;;4.03;1.40;;;;;;;;;;5111407;28;20107;-69
2022/05/30 17:17:17;;;;;;;7.38;2.15;;;;;;;;;;5111511;27;20561;-70
2022/05/30 17:20:50;;;;;;;8.55;2.88;;;;;;;;;;5111314;27;20384;-70
2022/05/30 17:23:18;;;;;;;7.03;2.55;;;;;;;;;;5111436;28;20380;-70
2022/05/30 17:25:49;;;;;;;6.50;2.03;;;;;;;;;;5110999;28;20107;-70
2022/05/30 17:30:51;;;;;;;10.27;6.03;;;;;;;;;;5111336;27;20987;-68
2022/05/30 17:33:17;;;;;;;13.60;7.78;;;;;;;;;;5110799;28;20024;-68
2022/05/30 17:35:46;;;;;;;11.07;5.28;;;;;;;;;;5111148;28;20030;-68
2022/05/30 17:38:12;;;;;;;11.77;5.47;;;;;;;;;;5111095;28;20468;-68
2022/05/30 17:40:39;;;;;;;4.45;2.00;;;;;;;;;;5110563;28;20045;-68
2022/05/30 17:43:09;;;;;;;3.03;1.40;;;;;;;;;;5111017;28;20020;-68
2022/05/30 17:45:37;;;;;;;6.25;1.90;;;;;;;;;;5111243;28;20020;-69
2022/05/30 17:48:07;;;;;;;5.60;1.67;;;;;;;;;;5110444;28;20024;-69
2022/05/30 17:50:39;;;;;;;10.07;3.42;;;;;;;;;;5110836;28;20054;-69
2022/05/30 17:53:07;;;;;;;7.45;3.85;;;;;;;;;;5111060;28;20016;-69
2022/05/30 17:55:35;;;;;;;14.18;6.65;;;;;;;;;;5110614;28;20067;-69
2022/05/30 17:58:02;;;;;;;8.20;2.72;;;;;;;;;;5110635;28;20062;-69
2022/05/30 18:02:05;;;;;;;10.20;2.25;;;;;;;;;;5110980;27;20569;-68
2022/05/30 18:04:31;;;;;;;6.80;2.80;;;;;;;;;;5111214;28;20020;-68
2022/05/30 18:06:58;;;;;;;7.60;2.65;;;;;;;;;;5111246;28;20030;-68
2022/05/30 18:13:22;;;;;;;9.57;2.42;;;;;;;;;;5111610;27;20119;-69
2022/05/30 18:15:48;;;;;;;4.72;2.05;;;;;;;;;;5110960;28;20429;-68
2022/05/30 18:21:14;;;;;;;4.43;2.20;;;;;;;;;;5111293;28;20121;-68
2022/05/30 18:23:46;;;;;;;6.43;2.30;;;;;;;;;;5110863;28;20391;-68
2022/05/30 18:26:12;;;;;;;5.07;1.95;;;;;;;;;;5110922;28;20019;-68
2022/05/30 18:28:38;;;;;;;6.30;2.55;;;;;;;;;;5110693;28;20031;-69
2022/05/30 18:31:16;;;;;;;5.40;2.35;;;;;;;;;;5110936;28;20028;-68
2022/05/30 18:33:47;;;;;;;4.22;2.08;;;;;;;;;;5111185;28;20053;-68
2022/05/30 18:36:14;;;;;;;2.65;1.75;;;;;;;;;;5110333;28;20020;-68
2022/05/30 18:38:40;;;;;;;6.15;2.35;;;;;;;;;;5110593;28;20034;-69
2022/05/30 18:41:13;;;;;;;4.53;2.00;;;;;;;;;;5110592;28;20479;-68
2022/05/30 18:44:53;;;;;;;6.70;2.17;;;;;;;;;;5110755;27;20573;-69
2022/05/30 18:47:21;;;;;;;6.80;2.92;;;;;;;;;;5110866;28;20028;-67
2022/05/30 18:49:50;;;;;;;6.25;2.72;;;;;;;;;;5110893;28;20046;-68
2022/05/30 18:53:52;;;;;;;6.25;2.38;;;;;;;;;;5111401;27;20949;-69
2022/05/30 18:56:21;;;;;;;7.53;2.42;;;;;;;;;;5111199;28;20023;-67
2022/05/30 18:58:53;;;;;;;3.80;1.90;;;;;;;;;;5110666;28;20492;-67
2022/05/30 19:01:20;;;;;;;6.88;2.03;;;;;;;;;;5111028;28;20103;-68
2022/05/30 19:03:47;;;;;;;5.45;1.80;;;;;;;;;;5110569;28;20456;-68
2022/05/30 19:06:13;;;;;;;5.13;1.65;;;;;;;;;;5126700;28;20427;-68
2022/05/30 19:08:40;;;;;;;6.00;2.90;;;;;;;;;;5110953;28;20032;-68
2022/05/30 19:11:24;;;;;;;6.70;1.90;;;;;;;;;;5110388;28;20042;-69
2022/05/30 19:14:13;;;;;;;5.05;2.10;;;;;;;;;;5126652;28;20032;-68
2022/05/30 19:19:40;;;;;;;7.63;3.00;;;;;;;;;;5110574;28;20150;-68
2022/05/30 19:22:06;;;;;;;4.07;2.00;;;;;;;;;;5110661;28;20103;-68
2022/05/30 19:26:21;;;;;;;2.67;1.50;;;;;;;;;;5111016;27;20569;-67
2022/05/30 19:28:48;;;;;;;4.70;2.55;;;;;;;;;;5111027;28;20031;-67
2022/05/30 19:31:15;;;;;;;4.63;1.92;;;;;;;;;;5109906;28;20028;-68
2022/05/30 19:33:41;;;;;;;3.40;1.95;;;;;;;;;;5107295;28;20103;-67
2022/05/30 19:36:07;;;;;;;10.65;2.75;;;;;;;;;;5108879;28;20365;-67
2022/05/30 19:38:34;;;;;;;5.10;2.17;;;;;;;;;;5108843;28;20027;-68